sensor_id;sensor_type;location;lat;lon;timestamp;P1;durP1;ratioP1;P2;durP2;ratioP2
76259;SDS011;65076;52.362;6.588;2023-04-15T00:01:43;5.68;;;2.65;;
76259;SDS011;65076;52.362;6.588;2023-04-15T00:04:11;4.55;;;2.85;;
76259;SDS011;65076;52.362;6.588;2023-04-15T00:06:38;4.63;;;2.75;;
76259;SDS011;65076;52.362;6.588;2023-04-15T00:09:06;6.95;;;2.83;;
76259;SDS011;65076;52.362;6.588;2023-04-15T00:11:34;5.13;;;2.97;;
76259;SDS011;65076;52.362;6.588;2023-04-15T00:14:02;6.28;;;3.00;;
76259;SDS011;65076;52.362;6.588;2023-04-15T00:16:31;7.75;;;3.58;;
76259;SDS011;65076;52.362;6.588;2023-04-15T00:19:00;9.68;;;3.78;;
76259;SDS011;65076;52.362;6.588;2023-04-15T00:21:29;5.72;;;3.22;;
76259;SDS011;65076;52.362;6.588;2023-04-15T00:23:58;7.82;;;3.05;;
76259;SDS011;65076;52.362;6.588;2023-04-15T00:26:26;7.20;;;3.00;;
76259;SDS011;65076;52.362;6.588;2023-04-15T00:28:55;4.63;;;3.42;;
76259;SDS011;65076;52.362;6.588;2023-04-15T00:31:23;6.63;;;3.58;;
76259;SDS011;65076;52.362;6.588;2023-04-15T00:33:51;7.75;;;3.42;;
76259;SDS011;65076;52.362;6.588;2023-04-15T00:36:21;4.57;;;3.20;;
76259;SDS011;65076;52.362;6.588;2023-04-15T00:38:49;9.93;;;3.40;;
76259;SDS011;65076;52.362;6.588;2023-04-15T00:41:17;5.07;;;2.95;;
76259;SDS011;65076;52.362;6.588;2023-04-15T00:43:46;6.30;;;3.13;;
76259;SDS011;65076;52.362;6.588;2023-04-15T00:46:13;7.18;;;3.50;;
76259;SDS011;65076;52.362;6.588;2023-04-15T00:48:46;6.22;;;3.90;;
76259;SDS011;65076;52.362;6.588;2023-04-15T00:51:14;5.97;;;3.22;;
76259;SDS011;65076;52.362;6.588;2023-04-15T00:53:44;5.05;;;3.42;;
76259;SDS011;65076;52.362;6.588;2023-04-15T00:56:12;5.07;;;2.90;;
76259;SDS011;65076;52.362;6.588;2023-04-15T00:58:40;5.18;;;2.95;;
76259;SDS011;65076;52.362;6.588;2023-04-15T01:01:08;5.55;;;3.58;;
76259;SDS011;65076;52.362;6.588;2023-04-15T01:03:36;5.25;;;3.35;;
76259;SDS011;65076;52.362;6.588;2023-04-15T01:06:05;7.05;;;3.40;;
76259;SDS011;65076;52.362;6.588;2023-04-15T01:08:34;4.78;;;3.45;;
76259;SDS011;65076;52.362;6.588;2023-04-15T01:11:03;6.63;;;3.70;;
76259;SDS011;65076;52.362;6.588;2023-04-15T01:13:32;5.97;;;3.72;;
76259;SDS011;65076;52.362;6.588;2023-04-15T01:16:01;6.97;;;3.45;;
76259;SDS011;65076;52.362;6.588;2023-04-15T01:18:29;4.38;;;3.33;;
76259;SDS011;65076;52.362;6.588;2023-04-15T01:20:57;6.93;;;3.65;;
76259;SDS011;65076;52.362;6.588;2023-04-15T01:23:28;6.22;;;3.40;;
76259;SDS011;65076;52.362;6.588;2023-04-15T01:26:00;4.80;;;2.97;;
76259;SDS011;65076;52.362;6.588;2023-04-15T01:28:29;6.28;;;3.72;;
76259;SDS011;65076;52.362;6.588;2023-04-15T01:31:06;6.10;;;3.53;;
76259;SDS011;65076;52.362;6.588;2023-04-15T01:33:36;8.02;;;3.88;;
76259;SDS011;65076;52.362;6.588;2023-04-15T01:36:05;5.82;;;4.07;;
76259;SDS011;65076;52.362;6.588;2023-04-15T01:38:36;6.47;;;3.20;;
76259;SDS011;65076;52.362;6.588;2023-04-15T01:41:06;5.15;;;3.35;;
76259;SDS011;65076;52.362;6.588;2023-04-15T01:43:34;6.15;;;3.55;;
76259;SDS011;65076;52.362;6.588;2023-04-15T01:46:02;6.07;;;3.60;;
76259;SDS011;65076;52.362;6.588;2023-04-15T01:48:31;4.95;;;3.25;;
76259;SDS011;65076;52.362;6.588;2023-04-15T01:50:59;6.95;;;3.60;;
76259;SDS011;65076;52.362;6.588;2023-04-15T01:53:27;5.60;;;3.72;;
76259;SDS011;65076;52.362;6.588;2023-04-15T01:55:55;5.05;;;3.75;;
76259;SDS011;65076;52.362;6.588;2023-04-15T01:58:24;6.20;;;3.53;;
76259;SDS011;65076;52.362;6.588;2023-04-15T02:00:52;5.30;;;3.70;;
76259;SDS011;65076;52.362;6.588;2023-04-15T02:03:20;7.00;;;3.67;;
76259;SDS011;65076;52.362;6.588;2023-04-15T02:05:48;9.98;;;4.38;;
76259;SDS011;65076;52.362;6.588;2023-04-15T02:08:16;5.88;;;4.00;;
76259;SDS011;65076;52.362;6.588;2023-04-15T02:10:44;6.30;;;3.60;;
76259;SDS011;65076;52.362;6.588;2023-04-15T02:13:12;10.13;;;4.45;;
76259;SDS011;65076;52.362;6.588;2023-04-15T02:15:41;8.88;;;5.05;;
76259;SDS011;65076;52.362;6.588;2023-04-15T02:18:14;7.25;;;4.18;;
76259;SDS011;65076;52.362;6.588;2023-04-15T02:20:42;6.18;;;4.20;;
76259;SDS011;65076;52.362;6.588;2023-04-15T02:23:10;5.57;;;3.42;;
76259;SDS011;65076;52.362;6.588;2023-04-15T02:25:38;6.35;;;3.60;;
76259;SDS011;65076;52.362;6.588;2023-04-15T02:28:06;6.22;;;3.80;;
76259;SDS011;65076;52.362;6.588;2023-04-15T02:30:34;4.47;;;3.38;;
76259;SDS011;65076;52.362;6.588;2023-04-15T02:33:03;5.10;;;3.50;;
76259;SDS011;65076;52.362;6.588;2023-04-15T02:35:31;4.50;;;3.13;;
76259;SDS011;65076;52.362;6.588;2023-04-15T02:37:59;5.45;;;3.70;;
76259;SDS011;65076;52.362;6.588;2023-04-15T02:40:28;8.23;;;3.70;;
76259;SDS011;65076;52.362;6.588;2023-04-15T02:42:56;3.97;;;3.17;;
76259;SDS011;65076;52.362;6.588;2023-04-15T02:45:23;8.30;;;4.03;;
76259;SDS011;65076;52.362;6.588;2023-04-15T02:47:53;7.90;;;3.47;;
76259;SDS011;65076;52.362;6.588;2023-04-15T02:50:22;6.43;;;3.30;;
76259;SDS011;65076;52.362;6.588;2023-04-15T02:52:50;5.40;;;3.30;;
76259;SDS011;65076;52.362;6.588;2023-04-15T02:55:18;8.30;;;3.95;;
76259;SDS011;65076;52.362;6.588;2023-04-15T02:57:47;5.32;;;3.47;;
76259;SDS011;65076;52.362;6.588;2023-04-15T03:00:15;5.82;;;4.05;;
76259;SDS011;65076;52.362;6.588;2023-04-15T03:02:44;5.82;;;3.70;;
76259;SDS011;65076;52.362;6.588;2023-04-15T03:05:15;7.93;;;4.18;;
76259;SDS011;65076;52.362;6.588;2023-04-15T03:07:44;7.68;;;4.13;;
76259;SDS011;65076;52.362;6.588;2023-04-15T03:10:12;6.32;;;4.15;;
76259;SDS011;65076;52.362;6.588;2023-04-15T03:12:40;8.27;;;4.43;;
76259;SDS011;65076;52.362;6.588;2023-04-15T03:15:08;8.20;;;4.70;;
76259;SDS011;65076;52.362;6.588;2023-04-15T03:17:37;8.05;;;4.65;;
76259;SDS011;65076;52.362;6.588;2023-04-15T03:20:05;9.05;;;4.78;;
76259;SDS011;65076;52.362;6.588;2023-04-15T03:22:34;8.38;;;5.10;;
76259;SDS011;65076;52.362;6.588;2023-04-15T03:25:04;12.38;;;5.55;;
76259;SDS011;65076;52.362;6.588;2023-04-15T03:27:32;7.03;;;5.10;;
76259;SDS011;65076;52.362;6.588;2023-04-15T03:30:00;8.30;;;5.30;;
76259;SDS011;65076;52.362;6.588;2023-04-15T03:32:28;8.07;;;5.38;;
76259;SDS011;65076;52.362;6.588;2023-04-15T03:34:56;8.10;;;4.90;;
76259;SDS011;65076;52.362;6.588;2023-04-15T03:37:24;7.18;;;5.25;;
76259;SDS011;65076;52.362;6.588;2023-04-15T03:39:52;11.45;;;6.22;;
76259;SDS011;65076;52.362;6.588;2023-04-15T03:42:22;8.98;;;5.75;;
76259;SDS011;65076;52.362;6.588;2023-04-15T03:44:50;8.35;;;4.80;;
76259;SDS011;65076;52.362;6.588;2023-04-15T03:47:17;12.43;;;5.88;;
76259;SDS011;65076;52.362;6.588;2023-04-15T03:49:47;9.10;;;5.47;;
76259;SDS011;65076;52.362;6.588;2023-04-15T03:52:15;9.23;;;5.53;;
76259;SDS011;65076;52.362;6.588;2023-04-15T03:54:42;10.68;;;5.90;;
76259;SDS011;65076;52.362;6.588;2023-04-15T03:57:11;9.52;;;5.72;;
76259;SDS011;65076;52.362;6.588;2023-04-15T03:59:40;8.43;;;5.40;;
76259;SDS011;65076;52.362;6.588;2023-04-15T04:02:08;11.98;;;6.28;;
76259;SDS011;65076;52.362;6.588;2023-04-15T04:04:35;11.43;;;6.07;;
76259;SDS011;65076;52.362;6.588;2023-04-15T04:07:03;10.82;;;5.85;;
76259;SDS011;65076;52.362;6.588;2023-04-15T04:09:31;10.00;;;6.43;;
76259;SDS011;65076;52.362;6.588;2023-04-15T04:11:59;8.82;;;5.75;;
76259;SDS011;65076;52.362;6.588;2023-04-15T04:14:27;12.38;;;6.15;;
76259;SDS011;65076;52.362;6.588;2023-04-15T04:16:56;9.00;;;5.20;;
76259;SDS011;65076;52.362;6.588;2023-04-15T04:19:24;13.07;;;6.95;;
76259;SDS011;65076;52.362;6.588;2023-04-15T04:21:52;11.68;;;6.70;;
76259;SDS011;65076;52.362;6.588;2023-04-15T04:24:20;11.27;;;7.03;;
76259;SDS011;65076;52.362;6.588;2023-04-15T04:26:48;10.98;;;6.10;;
76259;SDS011;65076;52.362;6.588;2023-04-15T04:29:16;9.27;;;6.13;;
76259;SDS011;65076;52.362;6.588;2023-04-15T04:31:44;9.18;;;5.95;;
76259;SDS011;65076;52.362;6.588;2023-04-15T04:34:15;11.10;;;6.28;;
76259;SDS011;65076;52.362;6.588;2023-04-15T04:36:43;11.35;;;6.30;;
76259;SDS011;65076;52.362;6.588;2023-04-15T04:39:11;8.80;;;5.78;;
76259;SDS011;65076;52.362;6.588;2023-04-15T04:41:38;9.70;;;6.05;;
76259;SDS011;65076;52.362;6.588;2023-04-15T04:44:06;10.95;;;6.57;;
76259;SDS011;65076;52.362;6.588;2023-04-15T04:46:34;10.07;;;6.40;;
76259;SDS011;65076;52.362;6.588;2023-04-15T04:49:02;12.00;;;6.75;;
76259;SDS011;65076;52.362;6.588;2023-04-15T04:51:32;10.77;;;6.57;;
76259;SDS011;65076;52.362;6.588;2023-04-15T04:53:59;11.00;;;6.05;;
76259;SDS011;65076;52.362;6.588;2023-04-15T04:56:29;11.13;;;6.35;;
76259;SDS011;65076;52.362;6.588;2023-04-15T04:58:57;9.40;;;5.85;;
76259;SDS011;65076;52.362;6.588;2023-04-15T05:01:25;10.52;;;6.07;;
76259;SDS011;65076;52.362;6.588;2023-04-15T05:03:53;8.60;;;6.15;;
76259;SDS011;65076;52.362;6.588;2023-04-15T05:06:22;9.40;;;6.55;;
76259;SDS011;65076;52.362;6.588;2023-04-15T05:08:51;9.10;;;6.15;;
76259;SDS011;65076;52.362;6.588;2023-04-15T05:11:19;11.68;;;7.05;;
76259;SDS011;65076;52.362;6.588;2023-04-15T05:13:47;10.18;;;6.80;;
76259;SDS011;65076;52.362;6.588;2023-04-15T05:16:15;12.32;;;6.75;;
76259;SDS011;65076;52.362;6.588;2023-04-15T05:18:43;11.88;;;6.82;;
76259;SDS011;65076;52.362;6.588;2023-04-15T05:21:10;13.57;;;7.28;;
76259;SDS011;65076;52.362;6.588;2023-04-15T05:24:45;13.20;;;7.30;;
76259;SDS011;65076;52.362;6.588;2023-04-15T05:29:14;13.98;;;8.48;;
76259;SDS011;65076;52.362;6.588;2023-04-15T05:33:43;13.48;;;8.65;;
76259;SDS011;65076;52.362;6.588;2023-04-15T05:38:12;19.52;;;8.70;;
76259;SDS011;65076;52.362;6.588;2023-04-15T05:42:43;13.75;;;8.80;;
76259;SDS011;65076;52.362;6.588;2023-04-15T05:47:12;14.93;;;9.48;;
76259;SDS011;65076;52.362;6.588;2023-04-15T05:51:41;16.83;;;8.60;;
76259;SDS011;65076;52.362;6.588;2023-04-15T05:56:11;16.20;;;9.35;;
76259;SDS011;65076;52.362;6.588;2023-04-15T06:00:42;15.90;;;9.38;;
76259;SDS011;65076;52.362;6.588;2023-04-15T06:05:11;16.05;;;9.30;;
76259;SDS011;65076;52.362;6.588;2023-04-15T06:09:40;14.85;;;8.80;;
76259;SDS011;65076;52.362;6.588;2023-04-15T06:14:10;13.40;;;8.75;;
76259;SDS011;65076;52.362;6.588;2023-04-15T06:18:41;14.20;;;8.85;;
76259;SDS011;65076;52.362;6.588;2023-04-15T06:23:10;18.98;;;9.30;;
76259;SDS011;65076;52.362;6.588;2023-04-15T06:27:40;13.30;;;7.65;;
76259;SDS011;65076;52.362;6.588;2023-04-15T06:32:09;13.63;;;8.43;;
76259;SDS011;65076;52.362;6.588;2023-04-15T06:36:40;14.50;;;8.57;;
76259;SDS011;65076;52.362;6.588;2023-04-15T06:41:09;11.93;;;8.02;;
76259;SDS011;65076;52.362;6.588;2023-04-15T06:45:39;12.25;;;7.22;;
76259;SDS011;65076;52.362;6.588;2023-04-15T06:50:09;13.00;;;7.38;;
76259;SDS011;65076;52.362;6.588;2023-04-15T06:54:40;9.95;;;6.47;;
76259;SDS011;65076;52.362;6.588;2023-04-15T06:59:09;12.13;;;7.10;;
76259;SDS011;65076;52.362;6.588;2023-04-15T07:03:39;11.18;;;6.35;;
76259;SDS011;65076;52.362;6.588;2023-04-15T07:08:08;13.77;;;7.28;;
76259;SDS011;65076;52.362;6.588;2023-04-15T07:12:39;12.05;;;6.80;;
76259;SDS011;65076;52.362;6.588;2023-04-15T07:17:08;10.57;;;5.82;;
76259;SDS011;65076;52.362;6.588;2023-04-15T07:21:38;11.63;;;6.82;;
76259;SDS011;65076;52.362;6.588;2023-04-15T07:26:07;9.90;;;6.70;;
76259;SDS011;65076;52.362;6.588;2023-04-15T07:30:38;9.75;;;5.93;;
76259;SDS011;65076;52.362;6.588;2023-04-15T07:35:07;9.73;;;6.20;;
76259;SDS011;65076;52.362;6.588;2023-04-15T07:39:37;11.35;;;6.93;;
76259;SDS011;65076;52.362;6.588;2023-04-15T07:44:06;11.88;;;6.32;;
76259;SDS011;65076;52.362;6.588;2023-04-15T07:48:38;8.23;;;5.30;;
76259;SDS011;65076;52.362;6.588;2023-04-15T07:53:07;7.18;;;4.93;;
76259;SDS011;65076;52.362;6.588;2023-04-15T07:57:36;11.40;;;6.45;;
76259;SDS011;65076;52.362;6.588;2023-04-15T08:02:06;10.90;;;7.18;;
76259;SDS011;65076;52.362;6.588;2023-04-15T08:06:37;7.07;;;4.72;;
76259;SDS011;65076;52.362;6.588;2023-04-15T08:11:07;9.20;;;6.22;;
76259;SDS011;65076;52.362;6.588;2023-04-15T08:15:36;6.95;;;4.80;;
76259;SDS011;65076;52.362;6.588;2023-04-15T08:20:06;9.88;;;6.40;;
76259;SDS011;65076;52.362;6.588;2023-04-15T08:24:45;9.25;;;4.97;;
76259;SDS011;65076;52.362;6.588;2023-04-15T08:29:14;6.85;;;4.13;;
76259;SDS011;65076;52.362;6.588;2023-04-15T08:33:43;8.15;;;4.22;;
76259;SDS011;65076;52.362;6.588;2023-04-15T08:38:12;7.82;;;4.85;;
76259;SDS011;65076;52.362;6.588;2023-04-15T08:42:44;7.68;;;4.25;;
76259;SDS011;65076;52.362;6.588;2023-04-15T08:47:19;7.30;;;4.30;;
76259;SDS011;65076;52.362;6.588;2023-04-15T08:51:49;8.25;;;4.35;;
76259;SDS011;65076;52.362;6.588;2023-04-15T08:56:18;7.28;;;4.35;;
76259;SDS011;65076;52.362;6.588;2023-04-15T09:00:51;7.47;;;3.75;;
76259;SDS011;65076;52.362;6.588;2023-04-15T09:05:20;5.47;;;3.55;;
76259;SDS011;65076;52.362;6.588;2023-04-15T09:09:50;6.15;;;3.40;;
76259;SDS011;65076;52.362;6.588;2023-04-15T09:14:19;8.25;;;3.20;;
76259;SDS011;65076;52.362;6.588;2023-04-15T09:18:50;8.30;;;4.72;;
76259;SDS011;65076;52.362;6.588;2023-04-15T09:23:37;3.97;;;2.83;;
76259;SDS011;65076;52.362;6.588;2023-04-15T09:28:08;4.50;;;3.13;;
76259;SDS011;65076;52.362;6.588;2023-04-15T09:32:46;5.85;;;3.28;;
76259;SDS011;65076;52.362;6.588;2023-04-15T09:37:33;4.53;;;2.80;;
76259;SDS011;65076;52.362;6.588;2023-04-15T09:42:03;4.35;;;2.60;;
76259;SDS011;65076;52.362;6.588;2023-04-15T09:46:39;5.22;;;2.70;;
76259;SDS011;65076;52.362;6.588;2023-04-15T09:51:10;4.82;;;2.90;;
76259;SDS011;65076;52.362;6.588;2023-04-15T09:55:43;10.55;;;3.78;;
76259;SDS011;65076;52.362;6.588;2023-04-15T10:00:13;4.68;;;3.20;;
76259;SDS011;65076;52.362;6.588;2023-04-15T10:04:43;4.00;;;2.10;;
76259;SDS011;65076;52.362;6.588;2023-04-15T10:09:14;3.25;;;1.98;;
76259;SDS011;65076;52.362;6.588;2023-04-15T10:13:44;3.97;;;2.00;;
76259;SDS011;65076;52.362;6.588;2023-04-15T10:18:14;3.35;;;2.22;;
76259;SDS011;65076;52.362;6.588;2023-04-15T10:22:44;4.00;;;1.90;;
76259;SDS011;65076;52.362;6.588;2023-04-15T10:27:16;3.80;;;2.40;;
76259;SDS011;65076;52.362;6.588;2023-04-15T10:31:46;4.35;;;2.25;;
76259;SDS011;65076;52.362;6.588;2023-04-15T10:36:16;3.05;;;1.58;;
76259;SDS011;65076;52.362;6.588;2023-04-15T10:40:50;4.65;;;2.05;;
76259;SDS011;65076;52.362;6.588;2023-04-15T10:45:36;2.50;;;2.10;;
76259;SDS011;65076;52.362;6.588;2023-04-15T10:50:07;5.20;;;2.30;;
76259;SDS011;65076;52.362;6.588;2023-04-15T10:54:36;4.55;;;2.30;;
76259;SDS011;65076;52.362;6.588;2023-04-15T10:59:05;2.20;;;1.42;;
76259;SDS011;65076;52.362;6.588;2023-04-15T11:03:45;3.05;;;1.50;;
76259;SDS011;65076;52.362;6.588;2023-04-15T11:08:51;3.33;;;1.60;;
76259;SDS011;65076;52.362;6.588;2023-04-15T11:13:24;3.22;;;1.75;;
76259;SDS011;65076;52.362;6.588;2023-04-15T11:17:54;1.77;;;1.35;;
76259;SDS011;65076;52.362;6.588;2023-04-15T11:22:25;2.95;;;1.20;;
76259;SDS011;65076;52.362;6.588;2023-04-15T11:27:01;2.10;;;1.30;;
76259;SDS011;65076;52.362;6.588;2023-04-15T11:31:32;1.83;;;1.17;;
76259;SDS011;65076;52.362;6.588;2023-04-15T11:36:03;1.80;;;1.40;;
76259;SDS011;65076;52.362;6.588;2023-04-15T11:40:33;1.25;;;0.82;;
76259;SDS011;65076;52.362;6.588;2023-04-15T11:45:15;2.40;;;1.20;;
76259;SDS011;65076;52.362;6.588;2023-04-15T11:49:44;2.85;;;1.33;;
76259;SDS011;65076;52.362;6.588;2023-04-15T11:54:18;1.70;;;1.60;;
76259;SDS011;65076;52.362;6.588;2023-04-15T11:58:48;2.13;;;1.02;;
76259;SDS011;65076;52.362;6.588;2023-04-15T12:03:23;2.60;;;1.00;;
76259;SDS011;65076;52.362;6.588;2023-04-15T12:07:59;2.35;;;1.20;;
76259;SDS011;65076;52.362;6.588;2023-04-15T12:12:31;2.83;;;1.50;;
76259;SDS011;65076;52.362;6.588;2023-04-15T12:17:02;2.22;;;1.40;;
76259;SDS011;65076;52.362;6.588;2023-04-15T12:21:35;3.03;;;1.20;;
76259;SDS011;65076;52.362;6.588;2023-04-15T12:26:07;2.83;;;1.30;;
76259;SDS011;65076;52.362;6.588;2023-04-15T12:30:49;1.58;;;1.00;;
76259;SDS011;65076;52.362;6.588;2023-04-15T12:35:19;1.50;;;1.20;;
76259;SDS011;65076;52.362;6.588;2023-04-15T12:39:48;3.13;;;1.42;;
76259;SDS011;65076;52.362;6.588;2023-04-15T12:44:20;2.75;;;1.10;;
76259;SDS011;65076;52.362;6.588;2023-04-15T12:48:51;2.17;;;1.00;;
76259;SDS011;65076;52.362;6.588;2023-04-15T12:53:21;4.00;;;1.10;;
76259;SDS011;65076;52.362;6.588;2023-04-15T12:57:50;2.38;;;2.17;;
76259;SDS011;65076;52.362;6.588;2023-04-15T13:02:19;1.10;;;0.90;;
76259;SDS011;65076;52.362;6.588;2023-04-15T13:06:50;2.17;;;1.00;;
76259;SDS011;65076;52.362;6.588;2023-04-15T13:11:24;2.67;;;1.55;;
76259;SDS011;65076;52.362;6.588;2023-04-15T13:15:53;3.10;;;1.42;;
76259;SDS011;65076;52.362;6.588;2023-04-15T13:20:22;2.33;;;1.60;;
76259;SDS011;65076;52.362;6.588;2023-04-15T13:24:53;2.65;;;1.35;;
76259;SDS011;65076;52.362;6.588;2023-04-15T13:29:24;3.92;;;1.60;;
76259;SDS011;65076;52.362;6.588;2023-04-15T13:33:53;3.47;;;1.52;;
76259;SDS011;65076;52.362;6.588;2023-04-15T13:38:23;3.45;;;2.03;;
76259;SDS011;65076;52.362;6.588;2023-04-15T13:42:53;3.38;;;1.83;;
76259;SDS011;65076;52.362;6.588;2023-04-15T13:47:23;2.55;;;1.40;;
76259;SDS011;65076;52.362;6.588;2023-04-15T13:51:52;1.85;;;1.38;;
76259;SDS011;65076;52.362;6.588;2023-04-15T13:56:21;2.38;;;1.30;;
76259;SDS011;65076;52.362;6.588;2023-04-15T14:00:52;3.67;;;1.20;;
76259;SDS011;65076;52.362;6.588;2023-04-15T14:05:22;2.60;;;1.42;;
76259;SDS011;65076;52.362;6.588;2023-04-15T14:09:51;2.85;;;0.95;;
76259;SDS011;65076;52.362;6.588;2023-04-15T14:14:21;4.13;;;1.00;;
76259;SDS011;65076;52.362;6.588;2023-04-15T14:18:52;11.23;;;3.47;;
76259;SDS011;65076;52.362;6.588;2023-04-15T14:23:21;5.28;;;1.50;;
76259;SDS011;65076;52.362;6.588;2023-04-15T14:27:59;5.63;;;1.20;;
76259;SDS011;65076;52.362;6.588;2023-04-15T14:32:28;3.78;;;1.08;;
76259;SDS011;65076;52.362;6.588;2023-04-15T14:36:59;3.47;;;1.13;;
76259;SDS011;65076;52.362;6.588;2023-04-15T14:41:29;2.17;;;1.10;;
76259;SDS011;65076;52.362;6.588;2023-04-15T14:45:58;2.65;;;1.20;;
76259;SDS011;65076;52.362;6.588;2023-04-15T14:50:27;2.75;;;1.10;;
76259;SDS011;65076;52.362;6.588;2023-04-15T14:54:59;3.97;;;1.48;;
76259;SDS011;65076;52.362;6.588;2023-04-15T14:59:28;2.78;;;1.20;;
76259;SDS011;65076;52.362;6.588;2023-04-15T15:03:58;2.85;;;1.20;;
76259;SDS011;65076;52.362;6.588;2023-04-15T15:08:28;8.63;;;1.60;;
76259;SDS011;65076;52.362;6.588;2023-04-15T15:13:16;4.82;;;1.15;;
76259;SDS011;65076;52.362;6.588;2023-04-15T15:17:50;3.42;;;1.00;;
76259;SDS011;65076;52.362;6.588;2023-04-15T15:22:19;2.85;;;1.63;;
76259;SDS011;65076;52.362;6.588;2023-04-15T15:26:48;4.97;;;2.10;;
76259;SDS011;65076;52.362;6.588;2023-04-15T15:31:19;4.38;;;1.45;;
76259;SDS011;65076;52.362;6.588;2023-04-15T15:35:49;3.17;;;1.23;;
76259;SDS011;65076;52.362;6.588;2023-04-15T15:40:18;5.28;;;1.20;;
76259;SDS011;65076;52.362;6.588;2023-04-15T15:44:48;2.28;;;0.90;;
76259;SDS011;65076;52.362;6.588;2023-04-15T15:49:19;1.40;;;1.30;;
76259;SDS011;65076;52.362;6.588;2023-04-15T15:53:49;1.95;;;0.75;;
76259;SDS011;65076;52.362;6.588;2023-04-15T15:58:19;2.60;;;0.98;;
76259;SDS011;65076;52.362;6.588;2023-04-15T16:02:48;4.40;;;0.98;;
76259;SDS011;65076;52.362;6.588;2023-04-15T16:07:19;3.50;;;1.00;;
76259;SDS011;65076;52.362;6.588;2023-04-15T16:11:48;3.78;;;1.40;;
76259;SDS011;65076;52.362;6.588;2023-04-15T16:16:19;2.83;;;0.95;;
76259;SDS011;65076;52.362;6.588;2023-04-15T16:20:48;1.77;;;0.90;;
76259;SDS011;65076;52.362;6.588;2023-04-15T16:25:19;2.70;;;1.08;;
76259;SDS011;65076;52.362;6.588;2023-04-15T16:29:48;7.18;;;1.55;;
76259;SDS011;65076;52.362;6.588;2023-04-15T16:34:17;3.08;;;1.38;;
76259;SDS011;65076;52.362;6.588;2023-04-15T16:38:47;4.90;;;1.13;;
76259;SDS011;65076;52.362;6.588;2023-04-15T16:43:19;8.55;;;1.38;;
76259;SDS011;65076;52.362;6.588;2023-04-15T16:47:48;5.43;;;1.63;;
76259;SDS011;65076;52.362;6.588;2023-04-15T16:52:17;1.77;;;1.25;;
76259;SDS011;65076;52.362;6.588;2023-04-15T16:56:46;3.63;;;1.48;;
76259;SDS011;65076;52.362;6.588;2023-04-15T17:01:17;6.28;;;1.45;;
76259;SDS011;65076;52.362;6.588;2023-04-15T17:05:47;4.90;;;1.80;;
76259;SDS011;65076;52.362;6.588;2023-04-15T17:10:16;4.63;;;1.48;;
76259;SDS011;65076;52.362;6.588;2023-04-15T17:14:45;6.97;;;1.65;;
76259;SDS011;65076;52.362;6.588;2023-04-15T17:19:16;5.20;;;1.55;;
76259;SDS011;65076;52.362;6.588;2023-04-15T17:23:46;8.10;;;2.10;;
76259;SDS011;65076;52.362;6.588;2023-04-15T17:28:16;6.60;;;1.80;;
76259;SDS011;65076;52.362;6.588;2023-04-15T17:32:45;3.97;;;1.75;;
76259;SDS011;65076;52.362;6.588;2023-04-15T17:37:18;8.93;;;1.50;;
76259;SDS011;65076;52.362;6.588;2023-04-15T17:41:47;6.93;;;1.30;;
76259;SDS011;65076;52.362;6.588;2023-04-15T17:46:16;6.15;;;3.05;;
76259;SDS011;65076;52.362;6.588;2023-04-15T17:50:47;3.88;;;1.40;;
76259;SDS011;65076;52.362;6.588;2023-04-15T17:55:18;8.13;;;1.90;;
76259;SDS011;65076;52.362;6.588;2023-04-15T17:59:47;8.75;;;2.05;;
76259;SDS011;65076;52.362;6.588;2023-04-15T18:04:16;5.50;;;2.40;;
76259;SDS011;65076;52.362;6.588;2023-04-15T18:08:47;10.15;;;2.85;;
76259;SDS011;65076;52.362;6.588;2023-04-15T18:13:17;6.28;;;1.67;;
76259;SDS011;65076;52.362;6.588;2023-04-15T18:17:46;10.32;;;2.70;;
76259;SDS011;65076;52.362;6.588;2023-04-15T18:22:16;7.95;;;2.28;;
76259;SDS011;65076;52.362;6.588;2023-04-15T18:26:46;8.05;;;2.78;;
76259;SDS011;65076;52.362;6.588;2023-04-15T18:31:16;9.40;;;2.17;;
76259;SDS011;65076;52.362;6.588;2023-04-15T18:35:46;6.32;;;2.28;;
76259;SDS011;65076;52.362;6.588;2023-04-15T18:40:15;8.35;;;2.15;;
76259;SDS011;65076;52.362;6.588;2023-04-15T18:44:47;10.20;;;3.00;;
76259;SDS011;65076;52.362;6.588;2023-04-15T18:49:18;8.30;;;2.38;;
76259;SDS011;65076;52.362;6.588;2023-04-15T18:53:47;6.88;;;2.20;;
76259;SDS011;65076;52.362;6.588;2023-04-15T18:58:16;5.93;;;2.45;;
76259;SDS011;65076;52.362;6.588;2023-04-15T19:02:46;6.55;;;2.90;;
76259;SDS011;65076;52.362;6.588;2023-04-15T19:07:16;10.40;;;3.40;;
76259;SDS011;65076;52.362;6.588;2023-04-15T19:11:45;7.70;;;2.65;;
76259;SDS011;65076;52.362;6.588;2023-04-15T19:16:15;8.77;;;2.53;;
76259;SDS011;65076;52.362;6.588;2023-04-15T19:20:44;6.70;;;2.80;;
76259;SDS011;65076;52.362;6.588;2023-04-15T19:25:15;6.45;;;2.28;;
76259;SDS011;65076;52.362;6.588;2023-04-15T19:29:44;4.72;;;2.08;;
76259;SDS011;65076;52.362;6.588;2023-04-15T19:34:13;5.95;;;2.60;;
76259;SDS011;65076;52.362;6.588;2023-04-15T19:38:43;6.55;;;2.35;;
76259;SDS011;65076;52.362;6.588;2023-04-15T19:43:14;9.25;;;3.30;;
76259;SDS011;65076;52.362;6.588;2023-04-15T19:47:43;5.93;;;2.40;;
76259;SDS011;65076;52.362;6.588;2023-04-15T19:52:12;13.88;;;3.15;;
76259;SDS011;65076;52.362;6.588;2023-04-15T19:56:41;5.10;;;2.60;;
76259;SDS011;65076;52.362;6.588;2023-04-15T20:01:13;6.57;;;2.72;;
76259;SDS011;65076;52.362;6.588;2023-04-15T20:05:44;8.95;;;2.72;;
76259;SDS011;65076;52.362;6.588;2023-04-15T20:10:16;5.60;;;2.53;;
76259;SDS011;65076;52.362;6.588;2023-04-15T20:15:06;12.90;;;2.92;;
76259;SDS011;65076;52.362;6.588;2023-04-15T20:19:37;9.40;;;2.75;;
76259;SDS011;65076;52.362;6.588;2023-04-15T20:24:08;5.93;;;2.55;;
76259;SDS011;65076;52.362;6.588;2023-04-15T20:28:38;9.43;;;3.22;;
76259;SDS011;65076;52.362;6.588;2023-04-15T20:33:07;13.15;;;2.75;;
76259;SDS011;65076;52.362;6.588;2023-04-15T20:37:41;5.85;;;2.83;;
76259;SDS011;65076;52.362;6.588;2023-04-15T20:42:11;9.68;;;3.10;;
76259;SDS011;65076;52.362;6.588;2023-04-15T20:46:42;11.02;;;2.55;;
76259;SDS011;65076;52.362;6.588;2023-04-15T20:51:11;7.80;;;2.45;;
76259;SDS011;65076;52.362;6.588;2023-04-15T20:55:42;7.03;;;3.30;;
76259;SDS011;65076;52.362;6.588;2023-04-15T21:00:13;5.95;;;3.30;;
76259;SDS011;65076;52.362;6.588;2023-04-15T21:04:43;6.78;;;3.20;;
76259;SDS011;65076;52.362;6.588;2023-04-15T21:09:12;11.23;;;3.67;;
76259;SDS011;65076;52.362;6.588;2023-04-15T21:14:04;7.47;;;4.07;;
76259;SDS011;65076;52.362;6.588;2023-04-15T21:18:34;10.25;;;4.10;;
76259;SDS011;65076;52.362;6.588;2023-04-15T21:23:04;7.68;;;3.15;;
76259;SDS011;65076;52.362;6.588;2023-04-15T21:27:33;10.10;;;3.72;;
76259;SDS011;65076;52.362;6.588;2023-04-15T21:32:06;9.23;;;4.15;;
76259;SDS011;65076;52.362;6.588;2023-04-15T21:36:35;11.10;;;4.43;;
76259;SDS011;65076;52.362;6.588;2023-04-15T21:41:05;12.13;;;4.43;;
76259;SDS011;65076;52.362;6.588;2023-04-15T21:45:34;10.25;;;4.22;;
76259;SDS011;65076;52.362;6.588;2023-04-15T21:50:25;14.80;;;4.35;;
76259;SDS011;65076;52.362;6.588;2023-04-15T21:54:54;16.27;;;5.15;;
76259;SDS011;65076;52.362;6.588;2023-04-15T21:59:23;12.27;;;4.93;;
76259;SDS011;65076;52.362;6.588;2023-04-15T22:03:53;13.50;;;5.38;;
76259;SDS011;65076;52.362;6.588;2023-04-15T22:08:23;10.00;;;4.90;;
76259;SDS011;65076;52.362;6.588;2023-04-15T22:12:53;13.48;;;5.95;;
76259;SDS011;65076;52.362;6.588;2023-04-15T22:17:23;14.57;;;4.28;;
76259;SDS011;65076;52.362;6.588;2023-04-15T22:21:52;16.80;;;5.05;;
76259;SDS011;65076;52.362;6.588;2023-04-15T22:26:42;15.80;;;6.72;;
76259;SDS011;65076;52.362;6.588;2023-04-15T22:31:12;15.18;;;6.00;;
76259;SDS011;65076;52.362;6.588;2023-04-15T22:35:41;18.27;;;7.00;;
76259;SDS011;65076;52.362;6.588;2023-04-15T22:40:10;17.75;;;6.80;;
76259;SDS011;65076;52.362;6.588;2023-04-15T22:44:41;21.15;;;6.90;;